Flesherton, Canada
Current Conditions -  °F | °C
As of 2:00 PM on Thursday 23 Oct 2014 (Local Time) from CYBN Reporting Station
Clear Clear  
Wind Chill: 57°   Ceiling: Unl
Heat Index: 57°   Visibility: 9mi
Dew Point: 45°   Wind: 9mph
Humidity: 63%   Direction: 320°NW
Pressure: 30.12"   Gusts: NA
Location:  44.25°N, 80.55°W
Report Text: CYBN 231800Z AUTO 32008KT 300V360 9SM CLR 14/07 A3012 RMK PCPN0.5MM PAST HR SLP206
Loading
Personal Weather Stations






























Interactive Weather Map
Tropical Storm Tracking
New forecast layout! Learn more

10-Day Weather Forecast

Advertisements
Track Severe Weather on mobile